Airfield :
LOGIN :

Register | Disclaimer

   EN    FR    IT 

 










Legend :    VFR   Marginal VFR   IFR   Intensive IFR   Very Intensive IFR
Visi :
Ceiling :
>= 8 km
>= 3000ft
5 to 8 km
1000 to 3000 ft
1500m to 5 km
500 to 1000 ft
800 to 1500m
200 to 500 ft
< 800m
< 200 ft
Symbols :   Thunderstorms  Fog  Heavy snow  Heavy precipitations  Wind > 20 kt
SIGMETs :     Misc.  Thunderstorms  Icing  Turbulence  Mountain Waves  Volcanic Ashes






- Airport Elevation : 157 ft
- IATA code : SXF


EDDB - Berlin Schönefeld

CURRENT METAR :
  • 170320Z AUTO 18005KT CAVOK 16/11 Q1011 NOSIG

EXPIRED METARs :
  • 170250Z AUTO 18004KT CAVOK 16/11 Q1011
  • 170220Z AUTO 18003KT 140V210 CAVOK 16/11 Q1011 NOSIG
  • 170150Z AUTO 18003KT CAVOK 16/11 Q1011
  • 170120Z AUTO 19003KT CAVOK 15/11 Q1011 NOSIG
  • 170050Z AUTO 18003KT 160V220 CAVOK 16/11 Q1011
  • 170020Z AUTO 18006KT CAVOK 16/11 Q1011 NOSIG
  • 162350Z AUTO 17006KT CAVOK 17/12 Q1010
  • 162320Z AUTO 17007KT CAVOK 17/12 Q1010 NOSIG
  • 162250Z AUTO 17009KT 9999 -RA FEW047 17/12 Q1011

TAF TAF EDDB
Valid from the 17 at 00:00 until the 18 at 00:00 UTC


162300Z 1700/1724 VRB03KT CAVOK
BECMG 1705/1708 20007KT
BECMG 1708/1711 22012KT
PROB40
TEMPO 1712/1717 22015G25KT 4500 TSRA SCT020CB
BECMG 1717/1720 VRB03KT



MET'MAP, your aeronautical weather chart ! - Copyright ORBIFLY December 2007 - Disclaimer

ORBIFLY MET'MAP TEAM :

Programming & Development : Alexandra Zaïnal
Original concept : Baudouin d'Aumeries
Technical & hardware support : Manuel Goepfert
Assistance : Marc-Olivier Méhu




SOURCES & CREDITS :

   NOAA